sensor_id;sensor_type;location;lat;lon;timestamp;temperature;humidity
2851;DHT22;1433;49.976;8.342;2023-02-07T00:01:26;1.40;99.90
2851;DHT22;1433;49.976;8.342;2023-02-07T00:03:53;1.40;99.90
2851;DHT22;1433;49.976;8.342;2023-02-07T00:06:32;1.40;99.90
2851;DHT22;1433;49.976;8.342;2023-02-07T00:09:01;1.30;99.90
2851;DHT22;1433;49.976;8.342;2023-02-07T00:11:29;1.30;99.90
2851;DHT22;1433;49.976;8.342;2023-02-07T00:13:57;1.40;99.90
2851;DHT22;1433;49.976;8.342;2023-02-07T00:16:25;1.30;99.90
2851;DHT22;1433;49.976;8.342;2023-02-07T00:18:53;1.30;99.90
2851;DHT22;1433;49.976;8.342;2023-02-07T00:21:22;1.30;99.90
2851;DHT22;1433;49.976;8.342;2023-02-07T00:23:49;1.30;99.90
2851;DHT22;1433;49.976;8.342;2023-02-07T00:26:18;1.30;99.90
2851;DHT22;1433;49.976;8.342;2023-02-07T00:28:47;1.20;99.90
2851;DHT22;1433;49.976;8.342;2023-02-07T00:31:19;1.20;99.90
2851;DHT22;1433;49.976;8.342;2023-02-07T00:33:49;1.10;99.90
2851;DHT22;1433;49.976;8.342;2023-02-07T00:36:19;1.10;99.90
2851;DHT22;1433;49.976;8.342;2023-02-07T00:38:47;1.00;99.90
2851;DHT22;1433;49.976;8.342;2023-02-07T00:41:14;0.90;99.90
2851;DHT22;1433;49.976;8.342;2023-02-07T00:43:44;0.90;99.90
2851;DHT22;1433;49.976;8.342;2023-02-07T00:46:12;0.90;99.90
2851;DHT22;1433;49.976;8.342;2023-02-07T00:48:40;0.90;99.90
2851;DHT22;1433;49.976;8.342;2023-02-07T00:51:09;0.90;99.90
2851;DHT22;1433;49.976;8.342;2023-02-07T00:53:37;0.90;99.90
2851;DHT22;1433;49.976;8.342;2023-02-07T00:56:05;0.80;99.90
2851;DHT22;1433;49.976;8.342;2023-02-07T00:58:32;0.80;99.90
2851;DHT22;1433;49.976;8.342;2023-02-07T01:00:58;0.90;99.90
2851;DHT22;1433;49.976;8.342;2023-02-07T01:03:25;0.90;99.90
2851;DHT22;1433;49.976;8.342;2023-02-07T01:05:51;0.80;99.90
2851;DHT22;1433;49.976;8.342;2023-02-07T01:08:17;0.80;99.90
2851;DHT22;1433;49.976;8.342;2023-02-07T01:10:45;0.70;99.90
2851;DHT22;1433;49.976;8.342;2023-02-07T01:13:13;0.70;99.90
2851;DHT22;1433;49.976;8.342;2023-02-07T01:15:43;0.80;99.90
2851;DHT22;1433;49.976;8.342;2023-02-07T01:18:12;0.90;99.90
2851;DHT22;1433;49.976;8.342;2023-02-07T01:20:39;0.90;99.90
2851;DHT22;1433;49.976;8.342;2023-02-07T01:23:06;0.80;99.90
2851;DHT22;1433;49.976;8.342;2023-02-07T01:25:33;0.70;99.90
2851;DHT22;1433;49.976;8.342;2023-02-07T01:27:59;0.60;99.90
2851;DHT22;1433;49.976;8.342;2023-02-07T01:30:26;0.60;99.90
2851;DHT22;1433;49.976;8.342;2023-02-07T01:32:52;0.50;99.90
2851;DHT22;1433;49.976;8.342;2023-02-07T01:35:19;0.50;99.90
2851;DHT22;1433;49.976;8.342;2023-02-07T01:37:45;0.50;99.90
2851;DHT22;1433;49.976;8.342;2023-02-07T01:40:12;0.60;99.90
2851;DHT22;1433;49.976;8.342;2023-02-07T01:42:38;0.60;99.90
2851;DHT22;1433;49.976;8.342;2023-02-07T01:48:14;0.60;99.90
2851;DHT22;1433;49.976;8.342;2023-02-07T01:50:40;0.70;99.90
2851;DHT22;1433;49.976;8.342;2023-02-07T01:53:21;0.80;99.90
2851;DHT22;1433;49.976;8.342;2023-02-07T01:55:51;1.00;99.90
2851;DHT22;1433;49.976;8.342;2023-02-07T01:58:20;1.10;99.90
2851;DHT22;1433;49.976;8.342;2023-02-07T02:00:47;1.30;99.90
2851;DHT22;1433;49.976;8.342;2023-02-07T02:03:13;1.30;99.90
2851;DHT22;1433;49.976;8.342;2023-02-07T02:05:41;1.40;99.90
2851;DHT22;1433;49.976;8.342;2023-02-07T02:08:08;1.50;99.90
2851;DHT22;1433;49.976;8.342;2023-02-07T02:13:46;1.60;99.90
2851;DHT22;1433;49.976;8.342;2023-02-07T02:16:28;1.50;99.90
2851;DHT22;1433;49.976;8.342;2023-02-07T02:42:22;0.90;99.90
2851;DHT22;1433;49.976;8.342;2023-02-07T02:45:01;0.90;99.90
2851;DHT22;1433;49.976;8.342;2023-02-07T02:47:29;0.80;99.90
2851;DHT22;1433;49.976;8.342;2023-02-07T02:49:57;0.80;99.90
2851;DHT22;1433;49.976;8.342;2023-02-07T02:52:26;0.70;99.90
2851;DHT22;1433;49.976;8.342;2023-02-07T02:54:54;0.70;99.90
2851;DHT22;1433;49.976;8.342;2023-02-07T03:00:28;0.60;99.90
2851;DHT22;1433;49.976;8.342;2023-02-07T03:12:13;0.20;99.90
2851;DHT22;1433;49.976;8.342;2023-02-07T03:14:52;0.20;99.90
2851;DHT22;1433;49.976;8.342;2023-02-07T03:17:44;0.10;99.90
2851;DHT22;1433;49.976;8.342;2023-02-07T03:20:19;0.00;99.90
2851;DHT22;1433;49.976;8.342;2023-02-07T03:22:49;0.00;99.90
2851;DHT22;1433;49.976;8.342;2023-02-07T03:25:18;0.00;99.90
2851;DHT22;1433;49.976;8.342;2023-02-07T03:27:47;0.20;99.90
2851;DHT22;1433;49.976;8.342;2023-02-07T03:30:17;0.30;99.90
2851;DHT22;1433;49.976;8.342;2023-02-07T03:32:47;0.30;99.90
2851;DHT22;1433;49.976;8.342;2023-02-07T03:35:22;0.30;99.90
2851;DHT22;1433;49.976;8.342;2023-02-07T03:37:58;0.30;99.90
2851;DHT22;1433;49.976;8.342;2023-02-07T03:40:28;0.30;99.90
2851;DHT22;1433;49.976;8.342;2023-02-07T03:43:19;0.30;99.90
2851;DHT22;1433;49.976;8.342;2023-02-07T03:45:53;0.20;99.90
2851;DHT22;1433;49.976;8.342;2023-02-07T03:48:20;0.20;99.90
2851;DHT22;1433;49.976;8.342;2023-02-07T03:50:47;0.10;99.90
2851;DHT22;1433;49.976;8.342;2023-02-07T03:53:16;0.10;99.90
2851;DHT22;1433;49.976;8.342;2023-02-07T03:55:43;0.10;99.90
2851;DHT22;1433;49.976;8.342;2023-02-07T03:58:10;0.10;99.90
2851;DHT22;1433;49.976;8.342;2023-02-07T04:00:36;0.10;99.90
2851;DHT22;1433;49.976;8.342;2023-02-07T04:03:03;0.10;99.90
2851;DHT22;1433;49.976;8.342;2023-02-07T04:05:30;0.10;99.90
2851;DHT22;1433;49.976;8.342;2023-02-07T04:07:56;0.10;99.90
2851;DHT22;1433;49.976;8.342;2023-02-07T04:10:22;0.10;99.90
2851;DHT22;1433;49.976;8.342;2023-02-07T04:12:48;0.10;99.90
2851;DHT22;1433;49.976;8.342;2023-02-07T04:15:15;0.10;99.90
2851;DHT22;1433;49.976;8.342;2023-02-07T04:17:41;0.00;99.90
2851;DHT22;1433;49.976;8.342;2023-02-07T04:20:08;0.00;99.90
2851;DHT22;1433;49.976;8.342;2023-02-07T04:22:35;-0.10;99.90
2851;DHT22;1433;49.976;8.342;2023-02-07T04:25:01;-0.10;99.90
2851;DHT22;1433;49.976;8.342;2023-02-07T04:27:28;-0.10;99.90
2851;DHT22;1433;49.976;8.342;2023-02-07T04:29:54;-0.20;99.90
2851;DHT22;1433;49.976;8.342;2023-02-07T04:32:21;-0.20;99.90
2851;DHT22;1433;49.976;8.342;2023-02-07T04:34:47;-0.20;99.90
2851;DHT22;1433;49.976;8.342;2023-02-07T04:37:13;-0.20;99.90
2851;DHT22;1433;49.976;8.342;2023-02-07T04:39:40;-0.20;99.90
2851;DHT22;1433;49.976;8.342;2023-02-07T04:42:06;-0.20;99.90
2851;DHT22;1433;49.976;8.342;2023-02-07T04:44:33;-0.20;99.90
2851;DHT22;1433;49.976;8.342;2023-02-07T04:46:59;-0.20;99.90
2851;DHT22;1433;49.976;8.342;2023-02-07T04:49:25;-0.20;99.90
2851;DHT22;1433;49.976;8.342;2023-02-07T04:51:51;-0.20;99.90
2851;DHT22;1433;49.976;8.342;2023-02-07T04:54:19;-0.30;99.90
2851;DHT22;1433;49.976;8.342;2023-02-07T04:56:45;-0.30;99.90
2851;DHT22;1433;49.976;8.342;2023-02-07T04:59:11;-0.30;99.90
2851;DHT22;1433;49.976;8.342;2023-02-07T05:01:37;-0.30;99.90
2851;DHT22;1433;49.976;8.342;2023-02-07T05:04:04;-0.40;99.90
2851;DHT22;1433;49.976;8.342;2023-02-07T05:06:31;-0.40;99.90
2851;DHT22;1433;49.976;8.342;2023-02-07T05:08:57;-0.50;99.90
2851;DHT22;1433;49.976;8.342;2023-02-07T05:11:23;-0.50;99.90
2851;DHT22;1433;49.976;8.342;2023-02-07T05:13:51;-0.60;99.90
2851;DHT22;1433;49.976;8.342;2023-02-07T05:16:17;-0.60;99.90
2851;DHT22;1433;49.976;8.342;2023-02-07T05:18:44;-0.60;99.90
2851;DHT22;1433;49.976;8.342;2023-02-07T05:21:10;-0.60;99.90
2851;DHT22;1433;49.976;8.342;2023-02-07T05:23:36;-0.70;99.90
2851;DHT22;1433;49.976;8.342;2023-02-07T05:26:03;-0.70;99.90
2851;DHT22;1433;49.976;8.342;2023-02-07T05:28:30;-0.80;99.90
2851;DHT22;1433;49.976;8.342;2023-02-07T05:30:56;-0.80;99.90
2851;DHT22;1433;49.976;8.342;2023-02-07T05:33:22;-0.80;99.90
2851;DHT22;1433;49.976;8.342;2023-02-07T05:35:48;-0.90;99.90
2851;DHT22;1433;49.976;8.342;2023-02-07T05:38:16;-0.90;99.90
2851;DHT22;1433;49.976;8.342;2023-02-07T05:40:43;-1.00;99.90
2851;DHT22;1433;49.976;8.342;2023-02-07T05:43:11;-1.00;99.90
2851;DHT22;1433;49.976;8.342;2023-02-07T05:45:37;-1.10;99.90
2851;DHT22;1433;49.976;8.342;2023-02-07T05:48:04;-1.10;99.90
2851;DHT22;1433;49.976;8.342;2023-02-07T05:50:31;-1.20;99.90
2851;DHT22;1433;49.976;8.342;2023-02-07T05:53:06;-1.20;99.90
2851;DHT22;1433;49.976;8.342;2023-02-07T05:55:32;-1.20;99.90
2851;DHT22;1433;49.976;8.342;2023-02-07T05:57:59;-1.30;99.90
2851;DHT22;1433;49.976;8.342;2023-02-07T06:00:25;-1.30;99.90
2851;DHT22;1433;49.976;8.342;2023-02-07T06:02:57;-1.30;99.90
2851;DHT22;1433;49.976;8.342;2023-02-07T06:05:23;-1.30;99.90
2851;DHT22;1433;49.976;8.342;2023-02-07T06:07:50;-1.40;99.90
2851;DHT22;1433;49.976;8.342;2023-02-07T06:10:16;-1.40;99.90
2851;DHT22;1433;49.976;8.342;2023-02-07T06:12:43;-1.40;99.90
2851;DHT22;1433;49.976;8.342;2023-02-07T06:15:17;-1.40;99.90
2851;DHT22;1433;49.976;8.342;2023-02-07T06:17:44;-1.50;99.90
2851;DHT22;1433;49.976;8.342;2023-02-07T06:20:10;-1.50;99.90
2851;DHT22;1433;49.976;8.342;2023-02-07T06:22:37;-1.50;99.90
2851;DHT22;1433;49.976;8.342;2023-02-07T06:25:04;-1.50;99.90
2851;DHT22;1433;49.976;8.342;2023-02-07T06:27:30;-1.50;99.90
2851;DHT22;1433;49.976;8.342;2023-02-07T06:29:57;-1.50;99.90
2851;DHT22;1433;49.976;8.342;2023-02-07T06:32:23;-1.50;99.90
2851;DHT22;1433;49.976;8.342;2023-02-07T06:34:49;-1.60;99.90
2851;DHT22;1433;49.976;8.342;2023-02-07T06:37:15;-1.60;99.90
2851;DHT22;1433;49.976;8.342;2023-02-07T06:39:43;-1.50;99.90
2851;DHT22;1433;49.976;8.342;2023-02-07T06:42:09;-1.50;99.90
2851;DHT22;1433;49.976;8.342;2023-02-07T06:44:35;-1.50;99.90
2851;DHT22;1433;49.976;8.342;2023-02-07T06:47:02;-1.50;99.90
2851;DHT22;1433;49.976;8.342;2023-02-07T06:49:29;-1.50;99.90
2851;DHT22;1433;49.976;8.342;2023-02-07T06:51:55;-1.50;99.90
2851;DHT22;1433;49.976;8.342;2023-02-07T06:54:21;-1.50;99.90
2851;DHT22;1433;49.976;8.342;2023-02-07T06:56:48;-1.60;99.90
2851;DHT22;1433;49.976;8.342;2023-02-07T06:59:14;-1.50;99.90
2851;DHT22;1433;49.976;8.342;2023-02-07T07:01:41;-1.60;99.90
2851;DHT22;1433;49.976;8.342;2023-02-07T07:04:07;-1.60;99.90
2851;DHT22;1433;49.976;8.342;2023-02-07T07:06:34;-1.50;99.90
2851;DHT22;1433;49.976;8.342;2023-02-07T07:09:00;-1.50;99.90
2851;DHT22;1433;49.976;8.342;2023-02-07T07:11:26;-1.50;99.90
2851;DHT22;1433;49.976;8.342;2023-02-07T07:13:52;-1.50;99.90
2851;DHT22;1433;49.976;8.342;2023-02-07T07:16:18;-1.50;99.90
2851;DHT22;1433;49.976;8.342;2023-02-07T07:18:45;-1.40;99.90
2851;DHT22;1433;49.976;8.342;2023-02-07T07:21:11;-1.40;99.90
2851;DHT22;1433;49.976;8.342;2023-02-07T07:23:37;-1.40;99.90
2851;DHT22;1433;49.976;8.342;2023-02-07T07:26:04;-1.30;99.90
2851;DHT22;1433;49.976;8.342;2023-02-07T07:28:30;-1.30;99.90
2851;DHT22;1433;49.976;8.342;2023-02-07T07:31:02;-1.30;99.90
2851;DHT22;1433;49.976;8.342;2023-02-07T07:33:32;-1.20;99.90
2851;DHT22;1433;49.976;8.342;2023-02-07T07:36:00;-1.20;99.90
2851;DHT22;1433;49.976;8.342;2023-02-07T07:38:27;-1.10;99.90
2851;DHT22;1433;49.976;8.342;2023-02-07T07:40:55;-1.10;99.90
2851;DHT22;1433;49.976;8.342;2023-02-07T07:43:21;-1.00;99.90
2851;DHT22;1433;49.976;8.342;2023-02-07T07:45:52;-0.90;99.90
2851;DHT22;1433;49.976;8.342;2023-02-07T07:48:21;-0.90;99.90
2851;DHT22;1433;49.976;8.342;2023-02-07T07:50:49;-0.80;99.90
2851;DHT22;1433;49.976;8.342;2023-02-07T07:53:16;-0.70;99.90
2851;DHT22;1433;49.976;8.342;2023-02-07T07:55:51;-0.70;99.90
2851;DHT22;1433;49.976;8.342;2023-02-07T07:58:19;-0.70;99.90
2851;DHT22;1433;49.976;8.342;2023-02-07T08:00:45;-0.60;99.90
2851;DHT22;1433;49.976;8.342;2023-02-07T08:03:15;-0.60;99.90
2851;DHT22;1433;49.976;8.342;2023-02-07T08:05:42;-0.50;99.90
2851;DHT22;1433;49.976;8.342;2023-02-07T08:08:09;-0.40;99.90
2851;DHT22;1433;49.976;8.342;2023-02-07T08:10:35;-0.40;99.90
2851;DHT22;1433;49.976;8.342;2023-02-07T08:13:02;-0.40;99.90
2851;DHT22;1433;49.976;8.342;2023-02-07T08:15:29;-0.30;99.90
2851;DHT22;1433;49.976;8.342;2023-02-07T08:17:56;-0.30;99.90
2851;DHT22;1433;49.976;8.342;2023-02-07T08:20:22;-0.20;99.90
2851;DHT22;1433;49.976;8.342;2023-02-07T08:22:48;-0.20;99.90
2851;DHT22;1433;49.976;8.342;2023-02-07T08:25:15;-0.10;99.90
2851;DHT22;1433;49.976;8.342;2023-02-07T08:27:42;0.00;99.90
2851;DHT22;1433;49.976;8.342;2023-02-07T08:30:12;0.00;99.90
2851;DHT22;1433;49.976;8.342;2023-02-07T08:32:40;0.00;99.90
2851;DHT22;1433;49.976;8.342;2023-02-07T08:35:07;0.00;99.90
2851;DHT22;1433;49.976;8.342;2023-02-07T08:37:34;0.10;99.90
2851;DHT22;1433;49.976;8.342;2023-02-07T08:40:01;0.20;99.90
2851;DHT22;1433;49.976;8.342;2023-02-07T08:42:29;0.20;99.90
2851;DHT22;1433;49.976;8.342;2023-02-07T08:44:56;0.20;99.90
2851;DHT22;1433;49.976;8.342;2023-02-07T08:47:23;0.20;99.90
2851;DHT22;1433;49.976;8.342;2023-02-07T08:49:50;0.30;99.90
2851;DHT22;1433;49.976;8.342;2023-02-07T08:52:16;0.30;99.90
2851;DHT22;1433;49.976;8.342;2023-02-07T08:54:44;0.40;99.90
2851;DHT22;1433;49.976;8.342;2023-02-07T08:57:10;0.40;99.90
2851;DHT22;1433;49.976;8.342;2023-02-07T08:59:37;0.40;99.90
2851;DHT22;1433;49.976;8.342;2023-02-07T09:02:03;0.50;99.90
2851;DHT22;1433;49.976;8.342;2023-02-07T09:04:29;0.50;99.90
2851;DHT22;1433;49.976;8.342;2023-02-07T09:06:56;0.50;99.90
2851;DHT22;1433;49.976;8.342;2023-02-07T09:09:22;0.60;99.90
2851;DHT22;1433;49.976;8.342;2023-02-07T09:11:49;0.70;99.90
2851;DHT22;1433;49.976;8.342;2023-02-07T09:14:16;0.80;99.90
2851;DHT22;1433;49.976;8.342;2023-02-07T09:16:42;0.80;99.90
2851;DHT22;1433;49.976;8.342;2023-02-07T09:19:08;0.80;99.90
2851;DHT22;1433;49.976;8.342;2023-02-07T09:21:35;0.80;99.90
2851;DHT22;1433;49.976;8.342;2023-02-07T09:24:03;0.90;99.90
2851;DHT22;1433;49.976;8.342;2023-02-07T09:26:29;0.90;99.90
2851;DHT22;1433;49.976;8.342;2023-02-07T09:28:57;1.00;99.90
2851;DHT22;1433;49.976;8.342;2023-02-07T09:31:24;1.10;99.90
2851;DHT22;1433;49.976;8.342;2023-02-07T09:33:50;1.10;99.90
2851;DHT22;1433;49.976;8.342;2023-02-07T09:36:24;1.20;99.90
2851;DHT22;1433;49.976;8.342;2023-02-07T09:38:52;1.20;99.90
2851;DHT22;1433;49.976;8.342;2023-02-07T09:41:25;1.30;99.90
2851;DHT22;1433;49.976;8.342;2023-02-07T09:52:00;1.10;99.90
2851;DHT22;1433;49.976;8.342;2023-02-07T09:54:38;1.30;99.90
2851;DHT22;1433;49.976;8.342;2023-02-07T09:59:57;1.70;99.90
2851;DHT22;1433;49.976;8.342;2023-02-07T10:02:29;1.90;99.90
2851;DHT22;1433;49.976;8.342;2023-02-07T10:05:17;1.80;99.90
2851;DHT22;1433;49.976;8.342;2023-02-07T10:07:47;1.70;99.90
2851;DHT22;1433;49.976;8.342;2023-02-07T10:10:31;1.70;99.90
2851;DHT22;1433;49.976;8.342;2023-02-07T10:13:05;1.80;99.90
2851;DHT22;1433;49.976;8.342;2023-02-07T10:15:45;1.80;99.90
2851;DHT22;1433;49.976;8.342;2023-02-07T10:20:54;2.00;99.90
2851;DHT22;1433;49.976;8.342;2023-02-07T10:29:19;2.20;99.90
2851;DHT22;1433;49.976;8.342;2023-02-07T10:31:49;2.30;99.90
2851;DHT22;1433;49.976;8.342;2023-02-07T10:34:23;2.20;99.90
2851;DHT22;1433;49.976;8.342;2023-02-07T10:36:52;2.20;99.90
2851;DHT22;1433;49.976;8.342;2023-02-07T10:39:37;2.10;99.90
2851;DHT22;1433;49.976;8.342;2023-02-07T10:42:04;2.20;99.90
2851;DHT22;1433;49.976;8.342;2023-02-07T10:44:30;2.20;99.90
2851;DHT22;1433;49.976;8.342;2023-02-07T10:47:02;2.30;99.90
2851;DHT22;1433;49.976;8.342;2023-02-07T10:49:32;2.30;99.90
2851;DHT22;1433;49.976;8.342;2023-02-07T10:55:04;2.40;99.90
2851;DHT22;1433;49.976;8.342;2023-02-07T10:57:33;2.60;99.90
2851;DHT22;1433;49.976;8.342;2023-02-07T11:02:53;2.60;99.90
2851;DHT22;1433;49.976;8.342;2023-02-07T11:10:38;2.70;99.90
2851;DHT22;1433;49.976;8.342;2023-02-07T11:13:12;2.80;99.90
2851;DHT22;1433;49.976;8.342;2023-02-07T11:15:53;2.90;99.90
2851;DHT22;1433;49.976;8.342;2023-02-07T11:21:23;2.80;99.90
2851;DHT22;1433;49.976;8.342;2023-02-07T11:24:13;2.80;99.90
2851;DHT22;1433;49.976;8.342;2023-02-07T11:27:15;2.90;99.90
2851;DHT22;1433;49.976;8.342;2023-02-07T11:29:52;3.00;99.90
2851;DHT22;1433;49.976;8.342;2023-02-07T11:32:24;3.00;99.90
2851;DHT22;1433;49.976;8.342;2023-02-07T11:34:57;2.90;99.90
2851;DHT22;1433;49.976;8.342;2023-02-07T11:37:29;2.90;99.90
2851;DHT22;1433;49.976;8.342;2023-02-07T11:40:19;3.00;99.90
2851;DHT22;1433;49.976;8.342;2023-02-07T11:42:48;2.90;99.90
2851;DHT22;1433;49.976;8.342;2023-02-07T11:45:31;2.90;99.90
2851;DHT22;1433;49.976;8.342;2023-02-07T11:47:59;3.10;99.90
2851;DHT22;1433;49.976;8.342;2023-02-07T11:50:29;3.20;99.90
2851;DHT22;1433;49.976;8.342;2023-02-07T11:52:59;3.40;99.90
2851;DHT22;1433;49.976;8.342;2023-02-07T11:55:34;3.40;99.90
2851;DHT22;1433;49.976;8.342;2023-02-07T11:58:09;3.50;99.90
2851;DHT22;1433;49.976;8.342;2023-02-07T12:00:38;3.50;99.90
2851;DHT22;1433;49.976;8.342;2023-02-07T12:03:22;3.50;99.90
2851;DHT22;1433;49.976;8.342;2023-02-07T12:05:54;3.50;99.90
2851;DHT22;1433;49.976;8.342;2023-02-07T12:08:24;3.60;99.90
2851;DHT22;1433;49.976;8.342;2023-02-07T12:11:04;3.60;99.90
2851;DHT22;1433;49.976;8.342;2023-02-07T12:13:46;3.60;99.90
2851;DHT22;1433;49.976;8.342;2023-02-07T12:16:32;3.60;99.90
2851;DHT22;1433;49.976;8.342;2023-02-07T12:19:38;3.70;99.90
2851;DHT22;1433;49.976;8.342;2023-02-07T12:24:42;3.90;99.90
2851;DHT22;1433;49.976;8.342;2023-02-07T12:27:16;3.90;99.90
2851;DHT22;1433;49.976;8.342;2023-02-07T12:30:09;4.10;99.90
2851;DHT22;1433;49.976;8.342;2023-02-07T12:38:37;4.70;99.90
2851;DHT22;1433;49.976;8.342;2023-02-07T12:45:14;5.50;99.90
2851;DHT22;1433;49.976;8.342;2023-02-07T12:49:58;6.60;99.90
2851;DHT22;1433;49.976;8.342;2023-02-07T12:59:05;7.50;99.90
2851;DHT22;1433;49.976;8.342;2023-02-07T13:04:39;8.20;99.90
2851;DHT22;1433;49.976;8.342;2023-02-07T13:07:22;8.50;99.90
2851;DHT22;1433;49.976;8.342;2023-02-07T13:10:41;8.80;99.90
2851;DHT22;1433;49.976;8.342;2023-02-07T13:13:16;8.80;99.90
2851;DHT22;1433;49.976;8.342;2023-02-07T13:18:51;9.10;99.90
2851;DHT22;1433;49.976;8.342;2023-02-07T13:21:28;9.50;99.90
2851;DHT22;1433;49.976;8.342;2023-02-07T13:24:06;9.30;99.90
2851;DHT22;1433;49.976;8.342;2023-02-07T13:26:35;9.90;99.90
2851;DHT22;1433;49.976;8.342;2023-02-07T13:29:13;10.30;99.90
2851;DHT22;1433;49.976;8.342;2023-02-07T13:31:46;10.40;99.90
2851;DHT22;1433;49.976;8.342;2023-02-07T13:34:24;10.70;99.90
2851;DHT22;1433;49.976;8.342;2023-02-07T13:36:52;10.80;99.90
2851;DHT22;1433;49.976;8.342;2023-02-07T13:47:56;10.80;99.90
2851;DHT22;1433;49.976;8.342;2023-02-07T13:53:29;10.30;99.90
2851;DHT22;1433;49.976;8.342;2023-02-07T13:55:54;10.30;99.90
2851;DHT22;1433;49.976;8.342;2023-02-07T14:01:29;10.40;99.90
2851;DHT22;1433;49.976;8.342;2023-02-07T14:06:39;10.30;99.90
2851;DHT22;1433;49.976;8.342;2023-02-07T14:12:00;10.20;99.90
2851;DHT22;1433;49.976;8.342;2023-02-07T14:14:37;10.20;99.90
2851;DHT22;1433;49.976;8.342;2023-02-07T14:17:11;10.10;99.90
2851;DHT22;1433;49.976;8.342;2023-02-07T14:22:31;10.70;99.90
2851;DHT22;1433;49.976;8.342;2023-02-07T14:25:21;10.50;99.90
2851;DHT22;1433;49.976;8.342;2023-02-07T14:33:20;10.40;99.90
2851;DHT22;1433;49.976;8.342;2023-02-07T14:41:34;10.20;99.90
2851;DHT22;1433;49.976;8.342;2023-02-07T14:44:05;10.40;99.90
2851;DHT22;1433;49.976;8.342;2023-02-07T14:46:36;10.90;99.90
2851;DHT22;1433;49.976;8.342;2023-02-07T14:49:11;11.30;99.90
2851;DHT22;1433;49.976;8.342;2023-02-07T14:51:48;11.30;99.90
2851;DHT22;1433;49.976;8.342;2023-02-07T14:54:34;10.90;99.90
2851;DHT22;1433;49.976;8.342;2023-02-07T15:02:56;10.50;99.90
2851;DHT22;1433;49.976;8.342;2023-02-07T15:05:35;10.10;99.90
2851;DHT22;1433;49.976;8.342;2023-02-07T15:08:07;9.80;99.90
2851;DHT22;1433;49.976;8.342;2023-02-07T15:10:43;9.70;99.90
2851;DHT22;1433;49.976;8.342;2023-02-07T15:13:31;9.60;99.90
2851;DHT22;1433;49.976;8.342;2023-02-07T15:16:23;9.00;99.90
2851;DHT22;1433;49.976;8.342;2023-02-07T15:18:58;8.60;99.90
2851;DHT22;1433;49.976;8.342;2023-02-07T15:24:05;7.70;99.90
2851;DHT22;1433;49.976;8.342;2023-02-07T15:26:34;7.40;99.90
2851;DHT22;1433;49.976;8.342;2023-02-07T15:29:04;6.90;99.90
2851;DHT22;1433;49.976;8.342;2023-02-07T15:31:39;6.50;99.90
2851;DHT22;1433;49.976;8.342;2023-02-07T15:34:12;6.10;99.90
2851;DHT22;1433;49.976;8.342;2023-02-07T15:36:42;5.80;99.90
2851;DHT22;1433;49.976;8.342;2023-02-07T15:39:20;5.60;99.90
2851;DHT22;1433;49.976;8.342;2023-02-07T15:41:45;5.30;99.90
2851;DHT22;1433;49.976;8.342;2023-02-07T15:44:21;5.20;99.90
2851;DHT22;1433;49.976;8.342;2023-02-07T15:46:57;5.00;99.90
2851;DHT22;1433;49.976;8.342;2023-02-07T15:49:32;4.80;99.90
2851;DHT22;1433;49.976;8.342;2023-02-07T15:54:52;4.50;99.90
2851;DHT22;1433;49.976;8.342;2023-02-07T15:57:33;4.40;99.90
2851;DHT22;1433;49.976;8.342;2023-02-07T16:00:07;4.30;99.90
2851;DHT22;1433;49.976;8.342;2023-02-07T16:02:36;4.20;99.90
2851;DHT22;1433;49.976;8.342;2023-02-07T16:05:29;4.10;99.90
2851;DHT22;1433;49.976;8.342;2023-02-07T16:07:55;3.90;99.90
2851;DHT22;1433;49.976;8.342;2023-02-07T16:13:18;3.70;99.90
2851;DHT22;1433;49.976;8.342;2023-02-07T16:15:58;3.60;99.90
2851;DHT22;1433;49.976;8.342;2023-02-07T16:18:43;3.40;99.90
2851;DHT22;1433;49.976;8.342;2023-02-07T16:21:22;3.30;99.90
2851;DHT22;1433;49.976;8.342;2023-02-07T16:23:52;3.20;99.90
2851;DHT22;1433;49.976;8.342;2023-02-07T16:26:23;3.10;99.90
2851;DHT22;1433;49.976;8.342;2023-02-07T16:28:50;3.00;99.90
2851;DHT22;1433;49.976;8.342;2023-02-07T16:31:17;2.90;99.90
2851;DHT22;1433;49.976;8.342;2023-02-07T16:33:43;2.80;99.90
2851;DHT22;1433;49.976;8.342;2023-02-07T16:36:15;2.80;99.90
2851;DHT22;1433;49.976;8.342;2023-02-07T16:38:43;2.70;99.90
2851;DHT22;1433;49.976;8.342;2023-02-07T16:41:30;2.60;99.90
2851;DHT22;1433;49.976;8.342;2023-02-07T16:44:00;2.50;99.90
2851;DHT22;1433;49.976;8.342;2023-02-07T16:46:29;2.40;99.90
2851;DHT22;1433;49.976;8.342;2023-02-07T16:48:56;2.30;99.90
2851;DHT22;1433;49.976;8.342;2023-02-07T16:51:22;2.20;99.90
2851;DHT22;1433;49.976;8.342;2023-02-07T16:53:49;2.10;99.90
2851;DHT22;1433;49.976;8.342;2023-02-07T16:56:21;2.00;99.90
2851;DHT22;1433;49.976;8.342;2023-02-07T16:58:48;2.00;99.90
2851;DHT22;1433;49.976;8.342;2023-02-07T17:01:17;1.90;99.90
2851;DHT22;1433;49.976;8.342;2023-02-07T17:03:44;1.80;99.90
2851;DHT22;1433;49.976;8.342;2023-02-07T17:06:15;1.70;99.90
2851;DHT22;1433;49.976;8.342;2023-02-07T17:08:42;1.70;99.90
2851;DHT22;1433;49.976;8.342;2023-02-07T17:11:15;1.60;99.90
2851;DHT22;1433;49.976;8.342;2023-02-07T17:13:44;1.60;99.90
2851;DHT22;1433;49.976;8.342;2023-02-07T17:16:11;1.50;99.90
2851;DHT22;1433;49.976;8.342;2023-02-07T17:18:40;1.40;99.90
2851;DHT22;1433;49.976;8.342;2023-02-07T17:21:07;1.30;99.90
2851;DHT22;1433;49.976;8.342;2023-02-07T17:23:36;1.30;99.90
2851;DHT22;1433;49.976;8.342;2023-02-07T17:26:04;1.30;99.90
2851;DHT22;1433;49.976;8.342;2023-02-07T17:28:33;1.30;99.90
2851;DHT22;1433;49.976;8.342;2023-02-07T17:31:00;1.20;99.90
2851;DHT22;1433;49.976;8.342;2023-02-07T17:33:26;1.10;99.90
2851;DHT22;1433;49.976;8.342;2023-02-07T17:35:52;1.10;99.90
2851;DHT22;1433;49.976;8.342;2023-02-07T17:38:19;1.00;99.90
2851;DHT22;1433;49.976;8.342;2023-02-07T17:40:45;0.90;99.90
2851;DHT22;1433;49.976;8.342;2023-02-07T17:43:12;0.90;99.90
2851;DHT22;1433;49.976;8.342;2023-02-07T17:45:38;0.80;99.90
2851;DHT22;1433;49.976;8.342;2023-02-07T17:48:05;0.70;99.90
2851;DHT22;1433;49.976;8.342;2023-02-07T17:50:34;0.70;99.90
2851;DHT22;1433;49.976;8.342;2023-02-07T17:53:02;0.70;99.90
2851;DHT22;1433;49.976;8.342;2023-02-07T17:55:30;0.70;99.90
2851;DHT22;1433;49.976;8.342;2023-02-07T17:57:57;0.60;99.90
2851;DHT22;1433;49.976;8.342;2023-02-07T18:00:27;0.50;99.90
2851;DHT22;1433;49.976;8.342;2023-02-07T18:02:55;0.50;99.90
2851;DHT22;1433;49.976;8.342;2023-02-07T18:05:21;0.50;99.90
2851;DHT22;1433;49.976;8.342;2023-02-07T18:07:49;0.40;99.90
2851;DHT22;1433;49.976;8.342;2023-02-07T18:10:25;0.40;99.90
2851;DHT22;1433;49.976;8.342;2023-02-07T18:12:56;0.40;99.90
2851;DHT22;1433;49.976;8.342;2023-02-07T18:15:25;0.40;99.90
2851;DHT22;1433;49.976;8.342;2023-02-07T18:17:52;0.40;99.90
2851;DHT22;1433;49.976;8.342;2023-02-07T18:20:22;0.40;99.90
2851;DHT22;1433;49.976;8.342;2023-02-07T18:22:52;0.30;99.90
2851;DHT22;1433;49.976;8.342;2023-02-07T18:25:20;0.30;99.90
2851;DHT22;1433;49.976;8.342;2023-02-07T18:27:47;0.30;99.90
2851;DHT22;1433;49.976;8.342;2023-02-07T18:30:21;0.30;99.90
2851;DHT22;1433;49.976;8.342;2023-02-07T18:32:48;0.40;99.90
2851;DHT22;1433;49.976;8.342;2023-02-07T18:35:15;0.40;99.90
2851;DHT22;1433;49.976;8.342;2023-02-07T18:37:42;0.40;99.90
2851;DHT22;1433;49.976;8.342;2023-02-07T18:40:09;0.40;99.90
2851;DHT22;1433;49.976;8.342;2023-02-07T18:42:38;0.40;99.90
2851;DHT22;1433;49.976;8.342;2023-02-07T18:45:06;0.40;99.90
2851;DHT22;1433;49.976;8.342;2023-02-07T18:47:33;0.30;99.90
2851;DHT22;1433;49.976;8.342;2023-02-07T18:49:59;0.30;99.90
2851;DHT22;1433;49.976;8.342;2023-02-07T18:52:25;0.30;99.90
2851;DHT22;1433;49.976;8.342;2023-02-07T18:54:51;0.20;99.90
2851;DHT22;1433;49.976;8.342;2023-02-07T18:57:17;0.20;99.90
2851;DHT22;1433;49.976;8.342;2023-02-07T18:59:44;0.10;99.90
2851;DHT22;1433;49.976;8.342;2023-02-07T19:02:11;0.00;99.90